Time;durP1;ratioP1;P1;durP2;ratioP2;P2;SDS_P1;SDS_P2;PMS_P1;PMS_P2;Temp;Humidity;BMP_temperature;BMP_pressure;BME280_temperature;BME280_humidity;BME280_pressure;Samples;Min_cycle;Max_cycle;Signal;HPM_P1;HPM_P2
2021/03/31 00:01:06;;;;;;;16.00;8.90;;;16.20;97.30;;;;;;4068599;29;20680;-88
2021/03/31 00:03:10;;;;;;;16.85;9.85;;;16.20;97.40;;;;;;4084195;29;20274;-89
2021/03/31 00:05:11;;;;;;;22.23;9.15;;;16.20;97.50;;;;;;4085999;29;20187;-88
2021/03/31 00:07:12;;;;;;;22.17;8.88;;;16.20;97.50;;;;;;4087233;29;20176;-88
2021/03/31 00:09:13;;;;;;;15.25;8.80;;;16.00;97.50;;;;;;4087257;29;20318;-87
2021/03/31 00:11:14;;;;;;;15.68;8.60;;;15.90;97.70;;;;;;4087122;29;20200;-88
2021/03/31 00:13:16;;;;;;;14.10;9.05;;;15.90;97.70;;;;;;4071777;29;20220;-88
2021/03/31 00:15:17;;;;;;;16.25;8.90;;;15.80;97.90;;;;;;4071616;29;20636;-88
2021/03/31 00:17:18;;;;;;;15.93;8.82;;;15.90;97.80;;;;;;4071549;29;20211;-89
2021/03/31 00:19:19;;;;;;;14.82;9.05;;;15.90;97.70;;;;;;4071387;29;20712;-88
2021/03/31 00:21:19;;;;;;;19.75;9.95;;;16.00;97.70;;;;;;4086916;29;20262;-89
2021/03/31 00:23:23;;;;;;;19.08;10.48;;;16.00;97.70;;;;;;4071473;29;20165;-88
2021/03/31 00:25:23;;;;;;;23.17;9.55;;;15.90;97.90;;;;;;4087229;29;20303;-88
2021/03/31 00:27:24;;;;;;;19.85;9.85;;;16.00;98.10;;;;;;4071374;29;20188;-89
2021/03/31 00:29:25;;;;;;;19.67;10.38;;;15.90;98.10;;;;;;4087081;29;20176;-88
2021/03/31 00:31:25;;;;;;;18.02;9.93;;;15.90;98.30;;;;;;4071086;29;20328;-88
2021/03/31 00:33:26;;;;;;;15.85;10.63;;;15.80;98.40;;;;;;4087544;29;20632;-88
2021/03/31 00:35:27;;;;;;;17.25;9.88;;;15.80;98.40;;;;;;4071282;29;20191;-88
2021/03/31 00:37:27;;;;;;;18.33;10.15;;;15.80;98.70;;;;;;4086962;29;20584;-88
2021/03/31 00:39:28;;;;;;;19.05;10.32;;;15.80;98.70;;;;;;4087613;29;20270;-89
2021/03/31 00:41:29;;;;;;;16.42;10.32;;;15.70;98.70;;;;;;4086927;29;20207;-87
2021/03/31 00:43:30;;;;;;;23.38;10.35;;;15.70;98.80;;;;;;4071261;29;20176;-88
2021/03/31 00:45:31;;;;;;;26.75;11.07;;;15.70;99.00;;;;;;4071087;29;20208;-88
2021/03/31 00:47:31;;;;;;;16.20;10.05;;;15.60;99.20;;;;;;4086850;29;20689;-89
2021/03/31 00:49:33;;;;;;;23.90;10.80;;;15.60;99.30;;;;;;4086794;29;20263;-88
2021/03/31 00:51:34;;;;;;;20.95;10.32;;;15.50;99.50;;;;;;4086840;29;20223;-88
2021/03/31 00:53:41;;;;;;;17.55;10.38;;;15.40;99.70;;;;;;4071045;29;20655;-89
2021/03/31 00:55:42;;;;;;;17.17;10.35;;;15.30;99.70;;;;;;4086700;29;20207;-88
2021/03/31 00:57:43;;;;;;;23.05;11.00;;;15.40;99.90;;;;;;4086534;29;20231;-87
2021/03/31 00:59:44;;;;;;;22.23;11.32;;;15.30;99.90;;;;;;4086557;29;20187;-87
2021/03/31 01:01:46;;;;;;;19.10;11.23;;;15.30;99.90;;;;;;4070878;29;20180;-87
2021/03/31 01:03:47;;;;;;;23.10;11.10;;;15.20;99.90;;;;;;4086591;29;20319;-88
2021/03/31 01:05:48;;;;;;;17.10;10.68;;;15.10;99.90;;;;;;4086641;29;20226;-89
2021/03/31 01:07:48;;;;;;;21.13;11.65;;;15.00;99.90;;;;;;4070701;29;20180;-88
2021/03/31 01:09:51;;;;;;;22.77;11.52;;;14.90;99.90;;;;;;4070708;29;20284;-88
2021/03/31 01:11:58;;;;;;;21.38;11.88;;;14.80;99.90;;;;;;4070746;29;20176;-88
2021/03/31 01:14:07;;;;;;;27.63;12.20;;;14.70;99.90;;;;;;4086312;29;20214;-87
2021/03/31 01:16:22;;;;;;;26.23;11.73;;;14.70;99.90;;;;;;4086559;29;20212;-88
2021/03/31 01:18:44;;;;;;;19.70;11.38;;;14.70;99.90;;;;;;4086431;29;20187;-88
2021/03/31 01:21:00;;;;;;;17.08;11.07;;;14.70;99.90;;;;;;4086071;29;20222;-88
2021/03/31 01:23:31;;;;;;;22.33;11.82;;;14.70;99.90;;;;;;4086291;29;20223;-88
2021/03/31 01:25:45;;;;;;;20.02;11.65;;;14.80;99.90;;;;;;4086084;29;20267;-88
2021/03/31 01:27:54;;;;;;;19.77;11.27;;;14.70;99.90;;;;;;4086165;29;20183;-88
2021/03/31 01:30:16;;;;;;;23.25;12.23;;;14.70;99.90;;;;;;4086169;29;20315;-88
2021/03/31 01:32:54;;;;;;;25.35;12.10;;;14.70;99.90;;;;;;4101945;29;20665;-88
2021/03/31 01:34:58;;;;;;;22.38;12.15;;;14.60;99.90;;;;;;4086139;29;20659;-88
2021/03/31 01:37:01;;;;;;;24.15;12.35;;;14.70;99.90;;;;;;4087282;29;20235;-88
2021/03/31 01:39:05;;;;;;;18.95;12.18;;;14.70;99.90;;;;;;4086330;29;20171;-88
2021/03/31 01:41:07;;;;;;;18.35;11.85;;;14.60;99.90;;;;;;4070257;29;20199;-88
2021/03/31 01:43:12;;;;;;;20.90;12.07;;;14.70;99.90;;;;;;4070165;29;20184;-87
2021/03/31 01:45:16;;;;;;;21.52;12.75;;;14.60;99.90;;;;;;4085916;29;20187;-88
2021/03/31 01:47:18;;;;;;;20.55;12.30;;;14.60;99.90;;;;;;4085977;29;20233;-88
2021/03/31 01:49:21;;;;;;;21.10;12.77;;;14.50;99.90;;;;;;4086105;29;20231;-89
2021/03/31 01:51:23;;;;;;;24.58;13.43;;;14.40;99.90;;;;;;4070124;29;20291;-88
2021/03/31 01:53:25;;;;;;;22.92;12.85;;;14.40;99.90;;;;;;4085804;29;20271;-88
2021/03/31 01:55:26;;;;;;;23.58;13.60;;;14.40;99.90;;;;;;4085862;29;20619;-89
2021/03/31 01:57:28;;;;;;;22.27;12.77;;;14.40;99.90;;;;;;4085615;29;20697;-88
2021/03/31 01:59:30;;;;;;;20.30;12.45;;;14.50;99.90;;;;;;4085776;29;20262;-88
2021/03/31 02:01:32;;;;;;;24.33;13.40;;;14.50;99.90;;;;;;4069902;29;20196;-88
2021/03/31 02:03:35;;;;;;;21.15;12.07;;;14.40;99.90;;;;;;4087144;29;20223;-88
2021/03/31 02:05:36;;;;;;;20.95;12.40;;;14.30;99.90;;;;;;4069847;29;20223;-88
2021/03/31 02:07:40;;;;;;;21.77;12.07;;;14.10;99.90;;;;;;4085520;29;20179;-87
2021/03/31 02:09:43;;;;;;;22.05;12.00;;;14.10;99.90;;;;;;4085489;29;20176;-93
2021/03/31 02:11:45;;;;;;;19.35;12.02;;;14.10;99.90;;;;;;4085685;29;20257;-88
2021/03/31 02:13:47;;;;;;;25.35;12.25;;;14.20;99.90;;;;;;4085528;29;20652;-88
2021/03/31 02:15:50;;;;;;;21.13;12.13;;;14.20;99.90;;;;;;4101376;29;20227;-88
2021/03/31 02:17:52;;;;;;;19.73;12.47;;;14.30;99.90;;;;;;4085569;29;20524;-88
2021/03/31 02:19:54;;;;;;;21.92;11.20;;;14.30;99.90;;;;;;4085336;29;20207;-88
2021/03/31 02:21:54;;;;;;;19.20;11.68;;;14.30;99.90;;;;;;4085313;29;20302;-88
2021/03/31 02:23:56;;;;;;;18.48;11.15;;;14.30;99.90;;;;;;4069646;29;20169;-88
2021/03/31 02:25:57;;;;;;;21.70;12.02;;;14.40;99.90;;;;;;4085346;29;20214;-93
2021/03/31 02:27:59;;;;;;;24.60;11.85;;;14.40;99.90;;;;;;4085196;29;20179;-88
2021/03/31 02:30:00;;;;;;;21.02;13.05;;;14.40;99.90;;;;;;4085446;29;20563;-88
2021/03/31 02:32:01;;;;;;;17.65;11.43;;;14.40;99.90;;;;;;4069725;29;20215;-88
2021/03/31 02:34:04;;;;;;;26.63;12.00;;;14.30;99.90;;;;;;4085310;29;20188;-88
2021/03/31 02:36:05;;;;;;;26.95;11.95;;;14.30;99.90;;;;;;4085285;29;20175;-88
2021/03/31 02:38:10;;;;;;;22.25;12.75;;;14.30;99.90;;;;;;4101075;29;20181;-87
2021/03/31 02:40:12;;;;;;;21.20;12.32;;;14.30;99.90;;;;;;4084920;29;20203;-88
2021/03/31 02:42:15;;;;;;;21.25;12.88;;;14.10;99.90;;;;;;4085168;29;20636;-88
2021/03/31 02:44:20;;;;;;;21.00;12.40;;;14.10;99.90;;;;;;4101140;29;20164;-87
2021/03/31 02:46:23;;;;;;;21.27;12.65;;;14.10;99.90;;;;;;4085039;29;20217;-88
2021/03/31 02:48:25;;;;;;;20.33;12.18;;;14.10;99.90;;;;;;4100989;29;20203;-88
2021/03/31 02:50:28;;;;;;;19.67;12.40;;;14.10;99.90;;;;;;4084967;29;20690;-88
2021/03/31 02:52:31;;;;;;;22.40;12.57;;;14.20;99.90;;;;;;4084893;29;20184;-88
2021/03/31 02:54:32;;;;;;;22.63;12.38;;;14.20;99.90;;;;;;4084914;29;20175;-87
2021/03/31 02:56:33;;;;;;;25.23;12.35;;;14.20;99.90;;;;;;4084913;29;20176;-88
2021/03/31 02:58:37;;;;;;;23.08;12.35;;;14.20;99.90;;;;;;4069332;29;20187;-88
2021/03/31 03:00:39;;;;;;;18.35;12.93;;;14.10;99.90;;;;;;4084768;29;20199;-87
2021/03/31 03:02:41;;;;;;;21.98;12.90;;;14.10;99.90;;;;;;4085093;29;20186;-89
2021/03/31 03:04:48;;;;;;;24.60;13.00;;;13.90;99.90;;;;;;4084990;29;20629;-95
2021/03/31 03:06:49;;;;;;;24.42;13.45;;;13.70;99.90;;;;;;4084741;29;20212;-88
2021/03/31 03:08:51;;;;;;;19.67;12.98;;;13.70;99.90;;;;;;4084749;29;20187;-88
2021/03/31 03:10:56;;;;;;;18.95;12.38;;;13.60;99.90;;;;;;4084664;29;20568;-88
2021/03/31 03:12:59;;;;;;;20.33;12.32;;;13.60;99.90;;;;;;4084704;29;20171;-88
2021/03/31 03:15:01;;;;;;;27.35;12.48;;;13.60;99.90;;;;;;4084772;29;20179;-88
2021/03/31 03:17:02;;;;;;;28.55;12.57;;;13.50;99.90;;;;;;4085162;29;20207;-88
2021/03/31 03:19:03;;;;;;;22.98;11.88;;;13.50;99.90;;;;;;4100699;29;20175;-88
2021/03/31 03:21:04;;;;;;;23.10;12.43;;;13.60;99.90;;;;;;4084315;29;20274;-88
2021/03/31 03:23:06;;;;;;;20.40;12.35;;;13.60;99.90;;;;;;4069212;29;20247;-88
2021/03/31 03:25:11;;;;;;;21.50;12.32;;;13.60;99.90;;;;;;4084638;29;20186;-88
2021/03/31 03:27:16;;;;;;;27.73;13.48;;;13.70;99.90;;;;;;4069081;29;20176;-88
2021/03/31 03:29:18;;;;;;;23.10;12.68;;;13.60;99.90;;;;;;4084831;29;20193;-92
2021/03/31 03:31:19;;;;;;;27.17;13.20;;;13.50;99.90;;;;;;4084460;29;20261;-88
2021/03/31 03:33:20;;;;;;;22.35;12.68;;;13.50;99.90;;;;;;4084409;29;20580;-88
2021/03/31 03:35:23;;;;;;;25.80;14.00;;;13.50;99.90;;;;;;4068801;29;20271;-87
2021/03/31 03:37:24;;;;;;;23.27;12.80;;;13.40;99.90;;;;;;4084506;29;20164;-88
2021/03/31 03:39:25;;;;;;;25.57;13.20;;;13.40;99.90;;;;;;4069580;29;20219;-87
2021/03/31 03:41:26;;;;;;;22.20;12.40;;;13.40;99.90;;;;;;4071970;29;20601;-88
2021/03/31 03:43:26;;;;;;;22.40;12.00;;;13.10;99.90;;;;;;4072009;29;20168;-88
2021/03/31 03:45:30;;;;;;;21.53;11.87;;;12.90;99.90;;;;;;4103585;29;20573;-88
2021/03/31 03:47:31;;;;;;;20.47;11.70;;;12.70;99.90;;;;;;4087663;29;20176;-88
2021/03/31 03:49:36;;;;;;;25.87;12.00;;;12.60;99.90;;;;;;4087802;29;20635;-87
2021/03/31 03:51:38;;;;;;;26.63;12.57;;;12.70;99.90;;;;;;4087726;29;20179;-88
2021/03/31 03:53:40;;;;;;;25.93;11.90;;;12.90;99.90;;;;;;4088294;29;20190;-88
2021/03/31 03:55:41;;;;;;;21.97;12.50;;;13.00;99.90;;;;;;4087679;29;20262;-92
2021/03/31 03:57:42;;;;;;;23.13;11.60;;;13.00;99.90;;;;;;4087457;29;20184;-92
2021/03/31 03:59:42;;;;;;;19.30;11.47;;;13.10;99.90;;;;;;4071732;29;20176;-88
2021/03/31 04:01:43;;;;;;;22.10;12.10;;;13.10;99.90;;;;;;4087653;29;20258;-87
2021/03/31 04:03:44;;;;;;;25.90;12.37;;;13.10;99.90;;;;;;4071725;29;20565;-88
2021/03/31 04:05:45;;;;;;;20.90;11.37;;;13.10;99.90;;;;;;4087307;29;20298;-87
2021/03/31 04:07:45;;;;;;;23.17;12.03;;;13.20;99.90;;;;;;4071703;29;20184;-87
2021/03/31 04:09:50;;;;;;;21.20;10.97;;;13.10;99.90;;;;;;4087882;29;20171;-87
2021/03/31 04:11:51;;;;;;;16.80;10.57;;;13.10;99.90;;;;;;4071664;29;20203;-88
2021/03/31 04:13:53;;;;;;;24.93;10.87;;;13.20;99.90;;;;;;4087294;29;20168;-87
2021/03/31 04:16:04;;;;;;;18.93;10.80;;;13.20;99.90;;;;;;4087420;29;20183;-87
2021/03/31 04:18:07;;;;;;;25.20;11.43;;;13.20;99.90;;;;;;4103416;29;20211;-89
2021/03/31 04:20:11;;;;;;;18.43;10.93;;;13.20;99.90;;;;;;4087603;29;20564;-91
2021/03/31 04:22:12;;;;;;;25.13;11.80;;;13.20;99.90;;;;;;4087263;29;20223;-89
2021/03/31 04:24:14;;;;;;;24.53;12.37;;;13.10;99.90;;;;;;4087323;29;20678;-89
2021/03/31 04:26:16;;;;;;;21.97;11.33;;;12.90;99.90;;;;;;4071456;29;20303;-88
2021/03/31 04:28:17;;;;;;;25.10;11.30;;;12.90;99.90;;;;;;4087595;29;20520;-88
2021/03/31 04:30:20;;;;;;;19.90;11.43;;;12.90;99.90;;;;;;4087032;29;20200;-87
2021/03/31 04:32:22;;;;;;;21.03;11.30;;;13.00;99.90;;;;;;4071329;29;20236;-89
2021/03/31 04:34:23;;;;;;;21.57;10.67;;;13.00;99.90;;;;;;4087063;29;20203;-94
2021/03/31 04:36:27;;;;;;;25.57;11.17;;;13.10;99.90;;;;;;4071244;29;20183;-88
2021/03/31 04:38:28;;;;;;;23.90;12.17;;;13.00;99.90;;;;;;4071367;29;20221;-90
2021/03/31 04:40:29;;;;;;;21.03;10.80;;;13.00;99.90;;;;;;4071149;29;20313;-88
2021/03/31 04:42:29;;;;;;;24.97;11.10;;;12.90;99.90;;;;;;4071130;29;20208;-87
2021/03/31 04:44:30;;;;;;;28.97;10.93;;;12.70;99.90;;;;;;4086748;29;20164;-88
2021/03/31 04:46:30;;;;;;;22.13;11.40;;;12.70;99.90;;;;;;4071197;29;20218;-93
2021/03/31 04:48:31;;;;;;;21.87;11.50;;;12.50;99.90;;;;;;4086827;29;20172;-87
2021/03/31 04:50:32;;;;;;;21.20;10.90;;;12.30;99.90;;;;;;4070352;29;20291;-88
2021/03/31 04:52:33;;;;;;;21.33;10.60;;;12.20;99.90;;;;;;4086955;29;20278;-88
2021/03/31 04:54:34;;;;;;;22.03;9.33;;;12.20;99.90;;;;;;4071177;29;20176;-88
2021/03/31 04:56:34;;;;;;;22.03;10.37;;;12.30;99.90;;;;;;4086630;29;20168;-88
2021/03/31 04:58:35;;;;;;;19.63;10.43;;;12.50;99.90;;;;;;4086799;29;20175;-88
2021/03/31 05:00:36;;;;;;;23.00;10.27;;;12.50;99.90;;;;;;4086579;29;20282;-88
2021/03/31 05:02:36;;;;;;;19.53;9.67;;;12.60;99.90;;;;;;4071085;29;20247;-87
2021/03/31 05:04:37;;;;;;;18.83;9.70;;;12.70;99.90;;;;;;4086528;29;20211;-88
2021/03/31 05:06:37;;;;;;;19.70;10.17;;;12.70;99.90;;;;;;4070781;29;20264;-89
2021/03/31 05:08:38;;;;;;;26.43;10.00;;;12.80;99.90;;;;;;4086360;29;20179;-88
2021/03/31 05:10:39;;;;;;;19.03;9.47;;;12.80;99.90;;;;;;4070823;29;20248;-88
2021/03/31 05:12:39;;;;;;;26.30;10.33;;;12.80;99.90;;;;;;4086583;29;20172;-92
2021/03/31 05:14:40;;;;;;;17.27;9.10;;;12.80;99.90;;;;;;4070765;29;20179;-88
2021/03/31 05:16:41;;;;;;;24.30;10.40;;;12.70;99.90;;;;;;4086446;29;20264;-87
2021/03/31 05:18:41;;;;;;;20.00;10.30;;;12.80;99.90;;;;;;4086524;29;20207;-88
2021/03/31 05:20:42;;;;;;;23.57;9.73;;;12.80;99.90;;;;;;4070374;29;20224;-94
2021/03/31 05:22:43;;;;;;;21.07;9.77;;;12.80;99.90;;;;;;4086636;29;20180;-89
2021/03/31 05:24:43;;;;;;;19.80;9.50;;;12.80;99.90;;;;;;4086692;29;20227;-93
2021/03/31 05:26:44;;;;;;;24.63;10.00;;;12.90;99.90;;;;;;4070551;29;20227;-88
2021/03/31 05:28:45;;;;;;;18.93;8.77;;;12.80;99.90;;;;;;4086557;29;20243;-88
2021/03/31 05:30:46;;;;;;;17.87;9.20;;;12.60;99.90;;;;;;4070467;29;20255;-88
2021/03/31 05:32:46;;;;;;;25.10;9.10;;;12.40;99.90;;;;;;4070384;29;20548;-88
2021/03/31 05:34:47;;;;;;;17.73;9.47;;;12.30;99.90;;;;;;4070462;29;20188;-87
2021/03/31 05:36:48;;;;;;;23.70;9.77;;;12.20;99.90;;;;;;4070315;29;20188;-88
2021/03/31 05:38:48;;;;;;;21.10;10.13;;;12.10;99.90;;;;;;4086155;29;20179;-87
2021/03/31 05:40:49;;;;;;;17.77;9.87;;;12.10;99.90;;;;;;4070342;29;20192;-88
2021/03/31 05:42:50;;;;;;;18.87;9.50;;;12.20;99.90;;;;;;4070228;29;20621;-87
2021/03/31 05:44:51;;;;;;;21.03;9.47;;;12.20;99.90;;;;;;4086119;29;20547;-88
2021/03/31 05:46:53;;;;;;;17.17;9.80;;;12.30;99.90;;;;;;4086045;29;20663;-88
2021/03/31 05:48:54;;;;;;;19.47;9.90;;;12.40;99.90;;;;;;4070360;29;20180;-88
2021/03/31 05:50:58;;;;;;;29.13;10.40;;;12.60;99.90;;;;;;4085749;29;20295;-88
2021/03/31 05:52:58;;;;;;;21.13;10.07;;;12.50;99.90;;;;;;4085861;29;20187;-89
2021/03/31 05:55:02;;;;;;;20.43;10.57;;;12.30;99.90;;;;;;4070208;29;20176;-88
2021/03/31 05:57:06;;;;;;;19.17;9.60;;;12.20;99.90;;;;;;4070059;29;20221;-88
2021/03/31 05:59:07;;;;;;;24.57;9.60;;;12.30;99.90;;;;;;4085825;29;20186;-88
2021/03/31 06:01:08;;;;;;;22.33;9.37;;;12.50;99.90;;;;;;4085617;29;20286;-88
2021/03/31 06:03:09;;;;;;;19.70;9.50;;;12.70;99.90;;;;;;4100871;28;20175;-88
2021/03/31 06:05:11;;;;;;;21.80;9.07;;;12.80;99.90;;;;;;4085681;29;20592;-88
2021/03/31 06:07:13;;;;;;;20.83;9.70;;;12.90;99.90;;;;;;4085652;29;20187;-88
2021/03/31 06:09:13;;;;;;;19.17;8.50;;;13.00;99.90;;;;;;4070090;29;20173;-88
2021/03/31 06:11:16;;;;;;;15.70;8.30;;;13.10;99.90;;;;;;4069735;29;20235;-89
2021/03/31 06:13:16;;;;;;;21.90;8.47;;;13.20;99.90;;;;;;4069908;29;20165;-88
2021/03/31 06:15:39;;;;;;;21.10;8.93;;;13.30;99.90;;;;;;4085430;29;20282;-89
2021/03/31 06:18:12;;;;;;;23.53;9.43;;;13.40;99.90;;;;;;4069732;29;20176;-89
2021/03/31 06:20:36;;;;;;;23.07;8.97;;;13.60;99.90;;;;;;4085405;29;20712;-88
2021/03/31 06:23:05;;;;;;;32.27;9.97;;;13.50;99.90;;;;;;4085779;29;20583;-88
2021/03/31 06:25:17;;;;;;;24.33;9.00;;;13.60;99.90;;;;;;4084673;29;20275;-89
2021/03/31 06:27:27;;;;;;;24.23;9.93;;;13.30;99.90;;;;;;4069814;29;20224;-89
2021/03/31 06:30:04;;;;;;;21.30;10.03;;;12.80;99.90;;;;;;4085621;29;20191;-89
2021/03/31 06:32:18;;;;;;;23.13;10.67;;;12.90;99.90;;;;;;4085191;29;20706;-88
2021/03/31 06:34:27;;;;;;;27.03;10.10;;;13.20;99.90;;;;;;4085268;29;20580;-88
2021/03/31 06:36:43;;;;;;;20.63;9.37;;;12.90;99.90;;;;;;4085211;29;20308;-89
2021/03/31 06:38:50;;;;;;;19.53;9.60;;;12.80;99.90;;;;;;4085196;29;20175;-89
2021/03/31 06:40:55;;;;;;;18.37;9.10;;;12.60;99.90;;;;;;4069362;29;20199;-88
2021/03/31 06:43:15;;;;;;;18.67;9.60;;;12.50;99.90;;;;;;4085072;29;20179;-88
2021/03/31 06:45:18;;;;;;;24.40;8.77;;;12.50;99.90;;;;;;4084985;29;20206;-93
2021/03/31 06:47:25;;;;;;;25.67;8.93;;;12.50;99.90;;;;;;4085564;29;20551;-89
2021/03/31 06:49:27;;;;;;;19.73;9.30;;;12.70;99.90;;;;;;4069492;29;20531;-88
2021/03/31 06:51:30;;;;;;;19.17;9.57;;;12.70;99.90;;;;;;4084954;29;20286;-88
2021/03/31 06:53:32;;;;;;;20.83;8.67;;;13.00;99.90;;;;;;4085000;29;20171;-88
2021/03/31 06:55:33;;;;;;;21.40;8.70;;;13.00;99.90;;;;;;4084987;29;20738;-91
2021/03/31 06:57:35;;;;;;;17.03;8.00;;;13.30;99.90;;;;;;4084932;29;20179;-87
2021/03/31 06:59:36;;;;;;;21.20;8.17;;;13.60;99.90;;;;;;4069155;29;20177;-89
2021/03/31 07:01:37;;;;;;;17.07;8.13;;;13.50;99.90;;;;;;4069176;29;20220;-94
2021/03/31 07:03:38;;;;;;;21.13;8.33;;;13.50;99.90;;;;;;4069258;29;20601;-94
2021/03/31 07:05:40;;;;;;;14.73;8.47;;;13.70;99.90;;;;;;4084826;29;20210;-88
2021/03/31 07:07:42;;;;;;;16.37;8.53;;;13.90;99.90;;;;;;4069012;29;20173;-88
2021/03/31 07:09:44;;;;;;;25.27;9.47;;;14.10;99.90;;;;;;4084760;29;20211;-89
2021/03/31 07:11:45;;;;;;;22.07;9.63;;;14.30;99.90;;;;;;4069090;29;20187;-88
2021/03/31 07:13:47;;;;;;;20.85;8.68;;;14.60;99.90;;;;;;4084508;29;20171;-94
2021/03/31 07:15:49;;;;;;;18.33;8.48;;;14.90;99.90;;;;;;4071045;29;20267;-91
2021/03/31 07:17:54;;;;;;;18.50;8.05;;;15.40;99.90;;;;;;4071743;29;20567;-89
2021/03/31 07:19:57;;;;;;;16.17;7.70;;;16.20;99.90;;;;;;4071403;29;20199;-95
2021/03/31 07:21:58;;;;;;;18.70;7.60;;;17.70;99.90;;;;;;4069976;29;20266;-89
2021/03/31 07:23:59;;;;;;;18.58;7.82;;;18.30;99.90;;;;;;4084723;29;20160;-89
2021/03/31 07:26:00;;;;;;;14.55;7.55;;;18.40;99.90;;;;;;4085616;29;20682;-88
2021/03/31 07:28:02;;;;;;;14.15;7.50;;;18.70;99.90;;;;;;4085017;29;20171;-88
2021/03/31 07:30:10;;;;;;;15.65;6.97;;;19.20;99.90;;;;;;4069004;29;20200;-88
2021/03/31 07:32:11;;;;;;;12.38;6.53;;;20.10;99.90;;;;;;4068951;29;20656;-88
2021/03/31 07:34:17;;;;;;;20.25;7.43;;;20.30;99.90;;;;;;4084387;29;20171;-89
2021/03/31 07:36:20;;;;;;;13.23;6.72;;;20.40;99.90;;;;;;4072289;29;20182;-89
2021/03/31 07:38:23;;;;;;;14.38;6.65;;;20.80;99.90;;;;;;4084582;29;20176;-89
2021/03/31 07:40:23;;;;;;;13.10;6.10;;;20.30;99.90;;;;;;4084405;29;20210;-88
2021/03/31 07:42:26;;;;;;;14.60;6.05;;;21.00;99.90;;;;;;4084488;29;20183;-94
2021/03/31 07:44:31;;;;;;;14.32;5.78;;;21.30;99.10;;;;;;4068801;29;20177;-88
2021/03/31 07:46:37;;;;;;;18.55;6.07;;;21.40;99.50;;;;;;4084330;29;20211;-89
2021/03/31 07:48:39;;;;;;;12.88;5.72;;;22.10;98.10;;;;;;4084373;29;20179;-89
2021/03/31 07:50:40;;;;;;;20.90;6.85;;;22.30;99.30;;;;;;4084294;29;20205;-88
2021/03/31 07:52:58;;;;;;;12.48;5.88;;;22.40;98.80;;;;;;4068782;29;20196;-88
2021/03/31 07:54:58;;;;;;;12.35;5.47;;;22.80;98.80;;;;;;4084384;29;20203;-90
2021/03/31 07:57:25;;;;;;;10.82;5.80;;;23.00;97.40;;;;;;4084343;29;20172;-89
2021/03/31 07:59:26;;;;;;;10.27;6.45;;;22.50;96.90;;;;;;4068656;29;20621;-89
2021/03/31 08:01:41;;;;;;;12.40;6.35;;;22.70;98.10;;;;;;4084287;29;20230;-88
2021/03/31 08:03:42;;;;;;;16.38;6.20;;;22.00;97.80;;;;;;4084359;29;20267;-88
2021/03/31 08:06:09;;;;;;;12.98;6.22;;;23.00;97.50;;;;;;4084229;29;20199;-89
2021/03/31 08:08:14;;;;;;;15.18;6.68;;;23.00;96.20;;;;;;4068499;29;20180;-89
2021/03/31 08:10:36;;;;;;;12.80;6.28;;;23.10;96.80;;;;;;4084617;29;20210;-89
2021/03/31 08:12:37;;;;;;;9.27;6.03;;;22.20;97.30;;;;;;4084618;29;20176;-89
2021/03/31 08:14:43;;;;;;;18.05;6.68;;;22.90;97.20;;;;;;4084346;29;20579;-88
2021/03/31 08:16:45;;;;;;;14.32;6.28;;;23.50;96.30;;;;;;4068752;29;20223;-89
2021/03/31 08:18:46;;;;;;;18.95;7.03;;;24.30;96.90;;;;;;4084280;29;20187;-88
2021/03/31 08:20:48;;;;;;;14.73;6.65;;;24.10;96.50;;;;;;4083955;29;20223;-90
2021/03/31 08:22:49;;;;;;;14.00;6.75;;;23.60;95.80;;;;;;4068199;29;20901;-89
2021/03/31 08:24:57;;;;;;;18.25;6.45;;;24.30;96.10;;;;;;4084201;29;20178;-94
2021/03/31 08:26:58;;;;;;;17.45;6.47;;;24.40;96.20;;;;;;4087065;29;20679;-89
2021/03/31 08:29:01;;;;;;;13.77;6.03;;;24.80;97.10;;;;;;4071339;29;20180;-89
2021/03/31 08:31:25;;;;;;;14.30;7.03;;;25.90;95.60;;;;;;4071228;29;20200;-90
2021/03/31 08:33:26;;;;;;;18.02;6.70;;;26.30;95.80;;;;;;4087133;29;20187;-89
2021/03/31 08:35:28;;;;;;;17.20;7.10;;;25.10;95.40;;;;;;4087191;29;20299;-89
2021/03/31 08:37:30;;;;;;;23.08;8.23;;;24.80;96.00;;;;;;4071306;29;20180;-89
2021/03/31 08:39:31;;;;;;;12.70;7.13;;;24.90;94.60;;;;;;4071191;29;20176;-89
2021/03/31 08:41:32;;;;;;;13.30;6.63;;;24.40;95.10;;;;;;4071180;29;20548;-89
2021/03/31 08:43:33;;;;;;;10.10;6.70;;;24.10;95.80;;;;;;4071187;29;20180;-90
2021/03/31 08:45:39;;;;;;;15.55;7.00;;;24.60;96.40;;;;;;4086931;29;20250;-89
2021/03/31 08:47:39;;;;;;;18.33;6.82;;;24.90;94.80;;;;;;4086843;29;20211;-89
2021/03/31 08:49:42;;;;;;;17.75;7.45;;;24.60;95.20;;;;;;4070967;29;20172;-89
2021/03/31 08:51:43;;;;;;;13.95;7.53;;;24.30;96.40;;;;;;4071175;29;20172;-89
2021/03/31 08:53:44;;;;;;;18.83;7.75;;;25.10;96.40;;;;;;4087189;29;20168;-95
2021/03/31 08:55:44;;;;;;;18.52;7.43;;;26.60;95.00;;;;;;4071047;29;20179;-89
2021/03/31 08:57:47;;;;;;;16.52;8.00;;;26.90;94.70;;;;;;4086744;29;20259;-89
2021/03/31 08:59:50;;;;;;;18.92;8.60;;;26.30;94.20;;;;;;4086566;29;20172;-90
2021/03/31 09:01:54;;;;;;;27.48;8.15;;;26.80;95.20;;;;;;4086802;29;20186;-90
2021/03/31 09:04:15;;;;;;;18.15;8.18;;;26.90;94.70;;;;;;4070891;29;20211;-91
2021/03/31 09:06:18;;;;;;;23.40;10.27;;;26.20;96.00;;;;;;4086584;29;20602;-90
2021/03/31 09:08:23;;;;;;;17.95;10.82;;;26.30;96.20;;;;;;4086560;29;20631;-89
2021/03/31 09:10:24;;;;;;;94.97;64.60;;;25.80;95.90;;;;;;4070894;29;20196;-90
2021/03/31 09:12:28;;;;;;;32.45;20.85;;;26.20;95.40;;;;;;4086692;29;20199;-89
2021/03/31 09:14:29;;;;;;;18.55;10.85;;;27.20;95.40;;;;;;4086453;29;20267;-90
2021/03/31 09:16:30;;;;;;;20.23;9.07;;;26.90;94.30;;;;;;4086740;29;20175;-90
2021/03/31 09:18:30;;;;;;;21.25;12.98;;;26.40;95.30;;;;;;4086611;29;20632;-90
2021/03/31 09:20:32;;;;;;;23.92;10.73;;;27.00;95.80;;;;;;4070821;29;20671;-90
2021/03/31 09:22:34;;;;;;;18.23;10.18;;;26.60;96.70;;;;;;4086753;29;20653;-95
2021/03/31 09:24:41;;;;;;;21.15;10.18;;;26.90;95.30;;;;;;4086514;29;20647;-92
2021/03/31 09:27:07;;;;;;;22.15;10.07;;;26.90;95.40;;;;;;4086198;29;20195;-90
2021/03/31 09:29:17;;;;;;;25.92;10.93;;;26.70;94.50;;;;;;4070777;29;20177;-96
2021/03/31 09:31:24;;;;;;;18.40;11.70;;;27.50;94.80;;;;;;4086672;29;20203;-91
2021/03/31 09:33:31;;;;;;;18.98;11.70;;;27.70;94.70;;;;;;4086414;29;20195;-90
2021/03/31 09:35:32;;;;;;;22.33;11.93;;;27.40;93.30;;;;;;4070646;29;20219;-90
2021/03/31 09:37:53;;;;;;;23.13;11.48;;;27.20;93.40;;;;;;4070801;29;20192;-90
2021/03/31 09:39:59;;;;;;;19.60;11.65;;;27.60;94.10;;;;;;4086375;29;20296;-90
2021/03/31 09:42:00;;;;;;;21.60;11.35;;;27.90;94.10;;;;;;4086245;29;20203;-91
2021/03/31 09:44:00;;;;;;;22.98;12.27;;;27.70;94.20;;;;;;4086156;29;20639;-90
2021/03/31 09:46:01;;;;;;;25.23;11.70;;;27.10;93.40;;;;;;4070318;29;20243;-90
2021/03/31 09:48:04;;;;;;;23.90;12.90;;;26.80;94.70;;;;;;4070660;29;20169;-90
2021/03/31 09:50:10;;;;;;;26.83;13.50;;;26.80;94.50;;;;;;4070031;29;20224;-95
2021/03/31 09:52:12;;;;;;;21.10;12.98;;;27.80;93.90;;;;;;4070177;29;20576;-89
2021/03/31 09:54:13;;;;;;;24.42;12.43;;;28.60;94.90;;;;;;4086056;29;20172;-90
2021/03/31 09:56:16;;;;;;;22.10;12.98;;;29.30;93.20;;;;;;4070381;29;20325;-90
2021/03/31 09:58:26;;;;;;;23.52;12.40;;;28.70;93.40;;;;;;4070480;29;20231;-90
2021/03/31 10:00:27;;;;;;;25.83;12.82;;;28.60;93.60;;;;;;4086120;29;20278;-96
2021/03/31 10:02:28;;;;;;;24.50;12.55;;;28.70;94.70;;;;;;4070896;29;20191;-89
2021/03/31 10:04:33;;;;;;;26.10;12.45;;;28.90;94.20;;;;;;4087278;29;20202;-90
2021/03/31 10:06:33;;;;;;;23.52;12.70;;;29.10;94.30;;;;;;4070315;29;20208;-95
2021/03/31 10:08:36;;;;;;;21.17;12.27;;;28.60;95.20;;;;;;4070607;29;20173;-89
2021/03/31 10:10:44;;;;;;;22.88;12.77;;;27.90;95.40;;;;;;4070293;29;20232;-91
2021/03/31 10:12:44;;;;;;;29.67;12.18;;;27.40;95.80;;;;;;4070214;29;20188;-89
2021/03/31 10:14:54;;;;;;;22.48;12.27;;;27.20;95.90;;;;;;4070480;29;20250;-90
2021/03/31 10:16:55;;;;;;;26.65;12.05;;;26.50;96.40;;;;;;4085767;29;20207;-89
2021/03/31 10:18:56;;;;;;;23.05;12.25;;;25.80;98.60;;;;;;4070187;29;20180;-90
2021/03/31 10:20:59;;;;;;;29.25;13.68;;;25.80;97.60;;;;;;4085399;29;20228;-95
2021/03/31 10:22:59;;;;;;;27.08;13.75;;;25.70;98.20;;;;;;4070110;29;20275;-89
2021/03/31 10:25:00;;;;;;;34.97;18.42;;;25.50;97.20;;;;;;4111336;23;20223;-96
2021/03/31 10:27:01;;;;;;;24.90;13.70;;;25.10;96.90;;;;;;4072318;29;20280;-96
2021/03/31 10:29:24;;;;;;;27.90;14.82;;;24.80;98.20;;;;;;4087411;29;20539;-96
2021/03/31 10:31:31;;;;;;;26.33;15.90;;;24.40;99.20;;;;;;4073944;29;20208;-95